Black River (Missouri), Poplar Bluff (07063000)

StateMissouriLatestFlood (4580 cfs)
RiverBlack RiverRatingObservedEstimated
Updated2021-04-10 21:15 (50 minutes ago)Flood - The river is flooding. Obstacles can be treacherous or deadly. The river should be avoided at this stage for casual trips and definitely for the inexperienced. Trips should be attempted only with protective gear and equipment.Flood(none)4097
Discharge4580 cfs (median: 1630 cfs)High - The river is high and potentially dangerous, especially for the young and / or inexperienced. Normal stream obstacles are sometimes difficult to navigate. Extended distances can be attempted, but canoe travel may not be advisable.High(none)1935
Height11.2 feetGood - Conditions are ideal for a canoe or kayak. Boats typically will drag on fewer than one-quarter of riffles, if at all, and portages are unnecessary or rare. Normal float lengths can be attempted without a problem.Good(none)978
TrendRising (rising over 24 hours)Low - River is low but can still be floated. Some riffles are okay but most come with significant dragging and might need a portage. Float lengths should be reduced to accommodate low flow, dragging, and portages.Low(none)643
USGSExternal icon USGS Site (External icon Google Maps)Poor - River is too low to float comfortably. Most or all riffles will drag or must be portaged and some obstacles (such as slick shelf rock) cause undue problems. Avoid the river at this stage for casual paddling trips.Poor(none)338

Trending Data

Plot Image

Trips for Black River (Missouri), Poplar Bluff (07063000)

DateStartEndDistanceConditionDischargeHeightFishingDetails

A total of 0 rows are displayed.

Condition Descriptions

Fishing Conditions

Fish Species

Notes

Classic Trip List

The classic River Trips application is still available for use. It is updated with the new system using a data retrofit. It is no longer maintained. The original River Trips application is no longer updated (as of 1 Dec 2016) but can be checked for errors or for the condition of the data before it was converted to the new system.

Gauge Data Table

ObservationHeightDischargeMaximum
Discharge
Minimum
Discharge
Mean
Discharge
P05P10P20P25P50
(Median)
P75P80P90P95
2021-04-10 21:15 11.20 4580 7740 (1969) 488 (1966) 2160 601 777 991 1090 1630 3040 3590 3880 3970
2021-04-10 20:15 11.19 4570 7740 (1969) 488 (1966) 2160 601 777 991 1090 1630 3040 3590 3880 3970
2021-04-10 19:15 11.21 4580 7740 (1969) 488 (1966) 2160 601 777 991 1090 1630 3040 3590 3880 3970
2021-04-10 18:15 11.21 4580 7740 (1969) 488 (1966) 2160 601 777 991 1090 1630 3040 3590 3880 3970
2021-04-10 17:15 11.20 4580 7740 (1969) 488 (1966) 2160 601 777 991 1090 1630 3040 3590 3880 3970
2021-04-10 16:15 11.20 4580 7740 (1969) 488 (1966) 2160 601 777 991 1090 1630 3040 3590 3880 3970
2021-04-10 15:15 11.20 4580 7740 (1969) 488 (1966) 2160 601 777 991 1090 1630 3040 3590 3880 3970
2021-04-10 14:15 11.20 4580 7740 (1969) 488 (1966) 2160 601 777 991 1090 1630 3040 3590 3880 3970
2021-04-10 13:15 11.20 4580 7740 (1969) 488 (1966) 2160 601 777 991 1090 1630 3040 3590 3880 3970
2021-04-10 12:15 11.19 4570 7740 (1969) 488 (1966) 2160 601 777 991 1090 1630 3040 3590 3880 3970
2021-04-10 11:15 11.19 4570 7740 (1969) 488 (1966) 2160 601 777 991 1090 1630 3040 3590 3880 3970
2021-04-10 10:15 11.19 4570 7740 (1969) 488 (1966) 2160 601 777 991 1090 1630 3040 3590 3880 3970
2021-04-10 09:15 11.21 4580 7740 (1969) 488 (1966) 2160 601 777 991 1090 1630 3040 3590 3880 3970
2021-04-10 08:15 11.19 4570 7740 (1969) 488 (1966) 2160 601 777 991 1090 1630 3040 3590 3880 3970
2021-04-10 07:15 11.18 4570 7740 (1969) 488 (1966) 2160 601 777 991 1090 1630 3040 3590 3880 3970
2021-04-10 06:15 11.18 4570 7740 (1969) 488 (1966) 2160 601 777 991 1090 1630 3040 3590 3880 3970
2021-04-10 05:15 11.18 4570 7740 (1969) 488 (1966) 2160 601 777 991 1090 1630 3040 3590 3880 3970
2021-04-10 04:15 11.18 4570 7740 (1969) 488 (1966) 2160 601 777 991 1090 1630 3040 3590 3880 3970
2021-04-10 03:15 11.18 4570 7740 (1969) 488 (1966) 2160 601 777 991 1090 1630 3040 3590 3880 3970
2021-04-10 02:15 11.18 4570 7740 (1969) 488 (1966) 2160 601 777 991 1090 1630 3040 3590 3880 3970
2021-04-10 01:15 11.16 4560 7740 (1969) 488 (1966) 2160 601 777 991 1090 1630 3040 3590 3880 3970
2021-04-10 00:15 11.15 4560 7740 (1969) 488 (1966) 2160 601 777 991 1090 1630 3040 3590 3880 3970
2021-04-09 23:15 11.15 4560 4800 (1986) 506 (1966) 2110 611 714 969 1090 1630 3330 3620 3880 4050
2021-04-09 22:15 11.14 4550 4800 (1986) 506 (1966) 2110 611 714 969 1090 1630 3330 3620 3880 4050
2021-04-09 21:15 11.17 4560 4800 (1986) 506 (1966) 2110 611 714 969 1090 1630 3330 3620 3880 4050
2021-04-09 20:15 11.18 4570 4800 (1986) 506 (1966) 2110 611 714 969 1090 1630 3330 3620 3880 4050
2021-04-09 19:15 11.20 4580 4800 (1986) 506 (1966) 2110 611 714 969 1090 1630 3330 3620 3880 4050
2021-04-09 18:15 11.23 4590 4800 (1986) 506 (1966) 2110 611 714 969 1090 1630 3330 3620 3880 4050
2021-04-09 17:15 11.27 4600 4800 (1986) 506 (1966) 2110 611 714 969 1090 1630 3330 3620 3880 4050
2021-04-09 16:15 11.28 4610 4800 (1986) 506 (1966) 2110 611 714 969 1090 1630 3330 3620 3880 4050
2021-04-09 15:15 11.33 4630 4800 (1986) 506 (1966) 2110 611 714 969 1090 1630 3330 3620 3880 4050
2021-04-09 14:15 11.36 4640 4800 (1986) 506 (1966) 2110 611 714 969 1090 1630 3330 3620 3880 4050
2021-04-09 13:15 11.40 4660 4800 (1986) 506 (1966) 2110 611 714 969 1090 1630 3330 3620 3880 4050
2021-04-09 12:15 11.41 4660 4800 (1986) 506 (1966) 2110 611 714 969 1090 1630 3330 3620 3880 4050
2021-04-09 11:15 11.45 4680 4800 (1986) 506 (1966) 2110 611 714 969 1090 1630 3330 3620 3880 4050
2021-04-09 10:15 11.47 4680 4800 (1986) 506 (1966) 2110 611 714 969 1090 1630 3330 3620 3880 4050
2021-04-09 09:15 11.51 4700 4800 (1986) 506 (1966) 2110 611 714 969 1090 1630 3330 3620 3880 4050
2021-04-09 08:15 11.53 4710 4800 (1986) 506 (1966) 2110 611 714 969 1090 1630 3330 3620 3880 4050
2021-04-09 07:15 11.56 4720 4800 (1986) 506 (1966) 2110 611 714 969 1090 1630 3330 3620 3880 4050
2021-04-09 06:15 11.59 4730 4800 (1986) 506 (1966) 2110 611 714 969 1090 1630 3330 3620 3880 4050
2021-04-09 05:15 11.61 4740 4800 (1986) 506 (1966) 2110 611 714 969 1090 1630 3330 3620 3880 4050
2021-04-09 04:15 11.63 4750 4800 (1986) 506 (1966) 2110 611 714 969 1090 1630 3330 3620 3880 4050
2021-04-09 03:15 11.65 4750 4800 (1986) 506 (1966) 2110 611 714 969 1090 1630 3330 3620 3880 4050
2021-04-09 02:15 11.66 4760 4800 (1986) 506 (1966) 2110 611 714 969 1090 1630 3330 3620 3880 4050
2021-04-09 01:15 11.68 4770 4800 (1986) 506 (1966) 2110 611 714 969 1090 1630 3330 3620 3880 4050
2021-04-09 00:15 11.68 4770 4800 (1986) 506 (1966) 2110 611 714 969 1090 1630 3330 3620 3880 4050
2021-04-08 23:15 11.67 4760 5370 (1986) 353 (1981) 2140 604 683 1000 1110 1700 3250 3590 3930 4080
2021-04-08 22:15 11.64 4750 5370 (1986) 353 (1981) 2140 604 683 1000 1110 1700 3250 3590 3930 4080
2021-04-08 21:15 11.64 4750 5370 (1986) 353 (1981) 2140 604 683 1000 1110 1700 3250 3590 3930 4080
2021-04-08 20:15 11.59 4730 5370 (1986) 353 (1981) 2140 604 683 1000 1110 1700 3250 3590 3930 4080
2021-04-08 19:15 11.55 4710 5370 (1986) 353 (1981) 2140 604 683 1000 1110 1700 3250 3590 3930 4080
2021-04-08 18:15 11.52 4700 5370 (1986) 353 (1981) 2140 604 683 1000 1110 1700 3250 3590 3930 4080
2021-04-08 17:15 11.44 4670 5370 (1986) 353 (1981) 2140 604 683 1000 1110 1700 3250 3590 3930 4080
2021-04-08 16:15 11.35 4640 5370 (1986) 353 (1981) 2140 604 683 1000 1110 1700 3250 3590 3930 4080
2021-04-08 15:15 11.28 4610 5370 (1986) 353 (1981) 2140 604 683 1000 1110 1700 3250 3590 3930 4080
2021-04-08 14:15 11.18 4570 5370 (1986) 353 (1981) 2140 604 683 1000 1110 1700 3250 3590 3930 4080
2021-04-08 13:15 11.06 4520 5370 (1986) 353 (1981) 2140 604 683 1000 1110 1700 3250 3590 3930 4080
2021-04-08 12:15 10.97 4490 5370 (1986) 353 (1981) 2140 604 683 1000 1110 1700 3250 3590 3930 4080
2021-04-08 11:15 10.83 4430 5370 (1986) 353 (1981) 2140 604 683 1000 1110 1700 3250 3590 3930 4080
2021-04-08 10:15 10.73 4390 5370 (1986) 353 (1981) 2140 604 683 1000 1110 1700 3250 3590 3930 4080
2021-04-08 09:15 10.63 4350 5370 (1986) 353 (1981) 2140 604 683 1000 1110 1700 3250 3590 3930 4080
2021-04-08 08:15 10.53 4310 5370 (1986) 353 (1981) 2140 604 683 1000 1110 1700 3250 3590 3930 4080
2021-04-08 07:15 10.42 4270 5370 (1986) 353 (1981) 2140 604 683 1000 1110 1700 3250 3590 3930 4080
2021-04-08 06:15 10.32 4230 5370 (1986) 353 (1981) 2140 604 683 1000 1110 1700 3250 3590 3930 4080
2021-04-08 05:15 10.25 4200 5370 (1986) 353 (1981) 2140 604 683 1000 1110 1700 3250 3590 3930 4080
2021-04-08 04:15 10.15 4170 5370 (1986) 353 (1981) 2140 604 683 1000 1110 1700 3250 3590 3930 4080
2021-04-08 03:15 10.10 4150 5370 (1986) 353 (1981) 2140 604 683 1000 1110 1700 3250 3590 3930 4080
2021-04-08 02:15 10.04 4120 5370 (1986) 353 (1981) 2140 604 683 1000 1110 1700 3250 3590 3930 4080
2021-04-08 01:15 10.01 4110 5370 (1986) 353 (1981) 2140 604 683 1000 1110 1700 3250 3590 3930 4080
2021-04-08 00:15 9.98 4100 5370 (1986) 353 (1981) 2140 604 683 1000 1110 1700 3250 3590 3930 4080
2021-04-07 23:15 9.97 4100 4400 (2008) 346 (1981) 2130 630 697 1090 1200 1740 3160 3440 3930 4070
2021-04-07 22:15 9.94 4080 4400 (2008) 346 (1981) 2130 630 697 1090 1200 1740 3160 3440 3930 4070
2021-04-07 21:15 9.92 4080 4400 (2008) 346 (1981) 2130 630 697 1090 1200 1740 3160 3440 3930 4070
2021-04-07 18:15 9.87 4060 4400 (2008) 346 (1981) 2130 630 697 1090 1200 1740 3160 3440 3930 4070
2021-04-07 17:15 9.86 4050 4400 (2008) 346 (1981) 2130 630 697 1090 1200 1740 3160 3440 3930 4070
2021-04-07 16:15 9.84 4050 4400 (2008) 346 (1981) 2130 630 697 1090 1200 1740 3160 3440 3930 4070
2021-04-07 15:15 9.85 4050 4400 (2008) 346 (1981) 2130 630 697 1090 1200 1740 3160 3440 3930 4070
2021-04-07 14:15 9.85 4050 4400 (2008) 346 (1981) 2130 630 697 1090 1200 1740 3160 3440 3930 4070
2021-04-07 13:15 9.83 4040 4400 (2008) 346 (1981) 2130 630 697 1090 1200 1740 3160 3440 3930 4070
2021-04-07 12:15 9.82 4040 4400 (2008) 346 (1981) 2130 630 697 1090 1200 1740 3160 3440 3930 4070
2021-04-07 11:15 9.82 4040 4400 (2008) 346 (1981) 2130 630 697 1090 1200 1740 3160 3440 3930 4070
2021-04-07 10:15 9.80 4030 4400 (2008) 346 (1981) 2130 630 697 1090 1200 1740 3160 3440 3930 4070
2021-04-07 09:15 9.81 4030 4400 (2008) 346 (1981) 2130 630 697 1090 1200 1740 3160 3440 3930 4070
2021-04-07 08:15 9.79 4030 4400 (2008) 346 (1981) 2130 630 697 1090 1200 1740 3160 3440 3930 4070
2021-04-07 07:15 9.79 4030 4400 (2008) 346 (1981) 2130 630 697 1090 1200 1740 3160 3440 3930 4070
2021-04-07 06:15 9.78 4020 4400 (2008) 346 (1981) 2130 630 697 1090 1200 1740 3160 3440 3930 4070
2021-04-07 05:15 9.77 4020 4400 (2008) 346 (1981) 2130 630 697 1090 1200 1740 3160 3440 3930 4070
2021-04-07 04:15 9.78 4020 4400 (2008) 346 (1981) 2130 630 697 1090 1200 1740 3160 3440 3930 4070
2021-04-07 03:15 9.77 4020 4400 (2008) 346 (1981) 2130 630 697 1090 1200 1740 3160 3440 3930 4070
2021-04-07 02:15 9.76 4010 4400 (2008) 346 (1981) 2130 630 697 1090 1200 1740 3160 3440 3930 4070
2021-04-07 01:15 9.78 4020 4400 (2008) 346 (1981) 2130 630 697 1090 1200 1740 3160 3440 3930 4070
2021-04-07 00:15 9.75 4010 4400 (2008) 346 (1981) 2130 630 697 1090 1200 1740 3160 3440 3930 4070

A total of 92 rows are displayed for years 1949 through 2020.